Time;durP1;ratioP1;P1;durP2;ratioP2;P2;SDS_P1;SDS_P2;PMS_P1;PMS_P2;Temp;Humidity;BMP_temperature;BMP_pressure;BME280_temperature;BME280_humidity;BME280_pressure;Samples;Min_cycle;Max_cycle;Signal;HPM_P1;HPM_P2
2023/08/12 00:00:30;;;;;;;2.83;1.80;;;;;;;;;;5114307;28;20193;-87
2023/08/12 00:02:58;;;;;;;3.70;1.50;;;;;;;;;;5113827;28;20268;-86
2023/08/12 00:05:25;;;;;;;1.60;1.50;;;;;;;;;;5113253;28;20244;-86
2023/08/12 00:07:54;;;;;;;2.05;1.58;;;;;;;;;;5113245;28;20677;-87
2023/08/12 00:10:20;;;;;;;2.05;1.50;;;;;;;;;;5113768;28;20274;-87
2023/08/12 00:12:48;;;;;;;3.47;1.70;;;;;;;;;;5113050;28;20245;-86
2023/08/12 00:15:15;;;;;;;3.15;1.80;;;;;;;;;;5113835;28;20280;-86
2023/08/12 00:17:42;;;;;;;2.25;1.50;;;;;;;;;;5113580;28;20246;-87
2023/08/12 00:20:11;;;;;;;1.92;1.58;;;;;;;;;;5113579;28;20643;-87
2023/08/12 00:22:38;;;;;;;3.03;1.90;;;;;;;;;;5114232;28;20220;-87
2023/08/12 00:25:07;;;;;;;1.98;1.70;;;;;;;;;;5113769;28;20276;-87
2023/08/12 00:27:35;;;;;;;2.25;1.80;;;;;;;;;;5113626;28;20721;-87
2023/08/12 00:30:02;;;;;;;3.30;1.80;;;;;;;;;;5113832;28;20277;-86
2023/08/12 00:32:29;;;;;;;3.60;2.00;;;;;;;;;;5113479;28;20955;-87
2023/08/12 00:34:57;;;;;;;3.15;2.10;;;;;;;;;;5114158;28;20182;-87
2023/08/12 00:37:24;;;;;;;3.75;2.10;;;;;;;;;;5114057;28;20733;-87
2023/08/12 00:39:51;;;;;;;3.63;2.40;;;;;;;;;;5113653;28;20197;-87
2023/08/12 00:42:20;;;;;;;3.10;2.17;;;;;;;;;;5114154;28;20713;-87
2023/08/12 00:44:47;;;;;;;2.33;2.08;;;;;;;;;;5113940;28;20282;-87
2023/08/12 00:47:14;;;;;;;3.35;2.58;;;;;;;;;;5113625;28;20617;-87
2023/08/12 00:49:43;;;;;;;3.25;2.20;;;;;;;;;;5113574;28;20611;-87
2023/08/12 00:52:11;;;;;;;3.88;2.65;;;;;;;;;;5113598;28;20316;-87
2023/08/12 00:54:38;;;;;;;5.22;2.80;;;;;;;;;;5113438;28;20214;-87
2023/08/12 00:57:05;;;;;;;5.82;2.60;;;;;;;;;;5113840;28;20273;-87
2023/08/12 00:59:34;;;;;;;3.00;2.67;;;;;;;;;;5113557;28;20602;-86
2023/08/12 01:02:01;;;;;;;3.17;2.80;;;;;;;;;;5113420;28;20304;-87
2023/08/12 01:04:29;;;;;;;5.55;2.75;;;;;;;;;;5113538;28;20637;-87
2023/08/12 01:06:56;;;;;;;3.28;2.80;;;;;;;;;;5114462;28;20289;-88
2023/08/12 01:09:24;;;;;;;3.80;2.58;;;;;;;;;;5113821;28;20254;-87
2023/08/12 01:11:53;;;;;;;3.28;2.60;;;;;;;;;;5114439;28;20202;-88
2023/08/12 01:14:25;;;;;;;3.28;2.20;;;;;;;;;;5113729;28;20189;-87
2023/08/12 01:16:58;;;;;;;2.80;1.90;;;;;;;;;;5125015;27;20212;-88
2023/08/12 01:19:30;;;;;;;2.67;1.92;;;;;;;;;;5138169;27;20189;-87
2023/08/12 01:22:01;;;;;;;4.88;2.40;;;;;;;;;;5139477;27;20238;-88
2023/08/12 01:24:36;;;;;;;4.00;2.15;;;;;;;;;;5137845;27;20229;-88
2023/08/12 01:27:03;;;;;;;3.70;1.98;;;;;;;;;;5139205;27;20192;-88
2023/08/12 01:29:31;;;;;;;3.53;2.00;;;;;;;;;;5137791;27;20239;-88
2023/08/12 01:32:03;;;;;;;2.60;1.73;;;;;;;;;;5139612;27;20230;-87
2023/08/12 01:34:35;;;;;;;2.35;1.80;;;;;;;;;;5138718;27;20638;-87
2023/08/12 01:37:03;;;;;;;4.57;1.63;;;;;;;;;;5137740;27;20289;-87
2023/08/12 01:39:32;;;;;;;2.45;1.55;;;;;;;;;;5138699;27;20201;-88
2023/08/12 01:42:01;;;;;;;2.28;1.63;;;;;;;;;;5138095;27;20225;-87
2023/08/12 01:44:28;;;;;;;2.13;1.50;;;;;;;;;;5138063;27;20204;-88
2023/08/12 01:46:56;;;;;;;2.70;1.45;;;;;;;;;;5137665;27;20220;-88
2023/08/12 01:49:24;;;;;;;4.20;1.40;;;;;;;;;;5137956;27;20220;-87
2023/08/12 01:51:51;;;;;;;2.60;1.30;;;;;;;;;;5137785;27;20197;-88
2023/08/12 01:54:19;;;;;;;2.33;1.60;;;;;;;;;;5137797;27;20232;-88
2023/08/12 01:56:47;;;;;;;4.28;1.40;;;;;;;;;;5137981;27;20224;-88
2023/08/12 01:59:14;;;;;;;2.35;1.35;;;;;;;;;;5137757;27;20223;-87
2023/08/12 02:01:42;;;;;;;2.08;1.23;;;;;;;;;;5137192;27;20223;-88
2023/08/12 02:04:09;;;;;;;1.90;1.40;;;;;;;;;;5137552;27;20224;-88
2023/08/12 02:06:37;;;;;;;2.10;1.40;;;;;;;;;;5137550;27;20228;-88
2023/08/12 02:09:04;;;;;;;1.30;1.20;;;;;;;;;;5137277;27;20228;-88
2023/08/12 02:11:31;;;;;;;1.60;1.20;;;;;;;;;;5136729;27;20193;-88
2023/08/12 02:14:00;;;;;;;2.28;1.20;;;;;;;;;;5136748;27;20319;-88
2023/08/12 02:16:27;;;;;;;3.33;1.60;;;;;;;;;;5136713;27;20241;-87
2023/08/12 02:18:54;;;;;;;3.08;1.30;;;;;;;;;;5137037;27;20280;-88
2023/08/12 02:21:22;;;;;;;1.98;1.40;;;;;;;;;;5136560;27;20643;-87
2023/08/12 02:23:49;;;;;;;2.90;1.38;;;;;;;;;;5137589;27;20614;-87
2023/08/12 02:26:17;;;;;;;2.95;1.30;;;;;;;;;;5136978;27;20247;-88
2023/08/12 02:28:44;;;;;;;4.78;1.50;;;;;;;;;;5120789;27;20294;-87
2023/08/12 02:31:13;;;;;;;2.40;1.50;;;;;;;;;;5116377;28;20225;-88
2023/08/12 02:33:40;;;;;;;3.95;1.63;;;;;;;;;;5115969;28;20317;-87
2023/08/12 02:36:07;;;;;;;4.00;1.80;;;;;;;;;;5116242;28;20288;-88
2023/08/12 02:38:34;;;;;;;2.17;1.38;;;;;;;;;;5116249;28;20225;-87
2023/08/12 02:41:02;;;;;;;3.60;1.52;;;;;;;;;;5116065;28;20678;-88
2023/08/12 02:43:29;;;;;;;6.45;1.75;;;;;;;;;;5116307;28;20617;-88
2023/08/12 02:45:56;;;;;;;2.20;1.70;;;;;;;;;;5116005;28;20222;-87
2023/08/12 02:48:25;;;;;;;2.90;1.65;;;;;;;;;;5116188;28;20228;-87
2023/08/12 02:50:52;;;;;;;3.28;1.52;;;;;;;;;;5115932;28;20197;-88
2023/08/12 02:53:19;;;;;;;3.10;1.42;;;;;;;;;;5116013;28;20603;-88
2023/08/12 02:55:47;;;;;;;3.67;1.63;;;;;;;;;;5115753;28;20592;-87
2023/08/12 02:58:14;;;;;;;2.78;1.70;;;;;;;;;;5115736;28;20217;-88
2023/08/12 03:00:43;;;;;;;3.03;1.77;;;;;;;;;;5115562;28;20246;-87
2023/08/12 03:03:10;;;;;;;2.78;1.80;;;;;;;;;;5115187;28;20298;-87
2023/08/12 03:05:40;;;;;;;4.97;1.83;;;;;;;;;;5115488;28;20630;-87
2023/08/12 03:08:08;;;;;;;3.42;1.80;;;;;;;;;;5116350;28;20269;-87
2023/08/12 03:10:35;;;;;;;3.85;1.92;;;;;;;;;;5115908;28;20281;-88
2023/08/12 03:13:02;;;;;;;3.40;1.80;;;;;;;;;;5115514;28;20245;-88
2023/08/12 03:15:29;;;;;;;6.20;2.05;;;;;;;;;;5115817;28;20282;-88
2023/08/12 03:17:57;;;;;;;3.22;1.85;;;;;;;;;;5133325;27;20255;-87
2023/08/12 03:20:24;;;;;;;3.33;2.00;;;;;;;;;;5135838;27;20262;-87
2023/08/12 03:22:53;;;;;;;4.75;2.17;;;;;;;;;;5135810;27;20243;-87
2023/08/12 03:25:20;;;;;;;4.30;2.10;;;;;;;;;;5136256;27;20192;-88
2023/08/12 03:27:48;;;;;;;4.18;2.20;;;;;;;;;;5135745;27;20224;-87
2023/08/12 03:30:15;;;;;;;4.65;2.10;;;;;;;;;;5135758;27;20235;-88
2023/08/12 03:32:42;;;;;;;3.47;2.30;;;;;;;;;;5135735;27;20569;-87
2023/08/12 03:35:10;;;;;;;3.85;2.20;;;;;;;;;;5135462;27;20693;-87
2023/08/12 03:37:37;;;;;;;6.30;2.72;;;;;;;;;;5136128;27;20209;-88
2023/08/12 03:40:07;;;;;;;6.95;2.40;;;;;;;;;;5135142;27;20287;-88
2023/08/12 03:42:34;;;;;;;8.35;2.33;;;;;;;;;;5135444;27;20276;-87
2023/08/12 03:45:02;;;;;;;4.53;2.40;;;;;;;;;;5135143;27;20289;-88
2023/08/12 03:47:29;;;;;;;5.18;2.60;;;;;;;;;;5135309;27;20279;-87
2023/08/12 03:49:57;;;;;;;4.93;2.40;;;;;;;;;;5135180;27;20280;-87
2023/08/12 03:52:24;;;;;;;6.38;2.33;;;;;;;;;;5135441;27;20595;-87
2023/08/12 03:54:52;;;;;;;6.55;2.75;;;;;;;;;;5135518;27;20648;-87
2023/08/12 03:57:21;;;;;;;9.02;2.85;;;;;;;;;;5135079;27;20566;-87
2023/08/12 03:59:48;;;;;;;6.03;3.10;;;;;;;;;;5135206;27;20235;-87
2023/08/12 04:02:16;;;;;;;5.88;2.65;;;;;;;;;;5134877;27;20699;-87
2023/08/12 04:04:43;;;;;;;6.07;3.33;;;;;;;;;;5134106;27;20280;-87
2023/08/12 04:07:11;;;;;;;6.70;2.90;;;;;;;;;;5135025;27;20221;-87
2023/08/12 04:09:38;;;;;;;9.68;3.47;;;;;;;;;;5134695;27;20185;-87
2023/08/12 04:12:06;;;;;;;9.32;3.20;;;;;;;;;;5135561;27;20231;-87
2023/08/12 04:14:34;;;;;;;8.07;3.00;;;;;;;;;;5134871;27;20285;-87
2023/08/12 04:17:02;;;;;;;8.65;3.30;;;;;;;;;;5134769;27;20284;-87
2023/08/12 04:19:29;;;;;;;7.35;3.35;;;;;;;;;;5134374;27;20645;-87
2023/08/12 04:21:56;;;;;;;7.57;3.28;;;;;;;;;;5134425;27;20212;-87
2023/08/12 04:24:23;;;;;;;11.05;3.47;;;;;;;;;;5134370;27;20279;-87
2023/08/12 04:26:50;;;;;;;9.52;3.55;;;;;;;;;;5134653;27;20292;-87
2023/08/12 04:29:18;;;;;;;7.57;3.05;;;;;;;;;;5134484;27;20279;-87
2023/08/12 04:31:46;;;;;;;7.45;3.47;;;;;;;;;;5134272;27;20284;-86
2023/08/12 04:34:14;;;;;;;6.53;3.40;;;;;;;;;;5133939;27;20225;-86
2023/08/12 04:36:41;;;;;;;9.77;3.78;;;;;;;;;;5134445;27;20212;-86
2023/08/12 04:39:08;;;;;;;7.93;3.22;;;;;;;;;;5134281;27;20224;-87
2023/08/12 04:41:38;;;;;;;6.28;3.42;;;;;;;;;;5134189;27;20228;-86
2023/08/12 04:44:05;;;;;;;9.05;3.70;;;;;;;;;;5134416;27;20586;-87
2023/08/12 04:46:33;;;;;;;7.97;3.45;;;;;;;;;;5133981;27;20436;-86
2023/08/12 04:49:01;;;;;;;10.70;3.50;;;;;;;;;;5134354;27;20283;-87
2023/08/12 04:51:28;;;;;;;8.85;3.20;;;;;;;;;;5136721;27;20661;-87
2023/08/12 04:53:56;;;;;;;10.65;3.50;;;;;;;;;;5138066;27;20246;-87
2023/08/12 04:56:24;;;;;;;8.13;3.50;;;;;;;;;;5138181;27;20236;-87
2023/08/12 04:58:51;;;;;;;8.63;3.90;;;;;;;;;;5138361;27;20196;-87
2023/08/12 05:01:18;;;;;;;6.38;3.47;;;;;;;;;;5138365;27;20185;-86
2023/08/12 05:03:46;;;;;;;5.65;3.30;;;;;;;;;;5137937;27;20665;-87
2023/08/12 05:06:15;;;;;;;6.70;3.60;;;;;;;;;;5137339;27;20231;-86
2023/08/12 05:08:42;;;;;;;10.85;3.90;;;;;;;;;;5138501;27;20293;-87
2023/08/12 05:11:10;;;;;;;8.40;4.00;;;;;;;;;;5138043;27;20217;-87
2023/08/12 05:13:43;;;;;;;8.77;4.00;;;;;;;;;;5137805;27;20731;-87
2023/08/12 05:16:10;;;;;;;7.95;3.90;;;;;;;;;;5138904;27;20654;-87
2023/08/12 05:18:38;;;;;;;8.93;4.25;;;;;;;;;;5138190;27;20620;-87
2023/08/12 05:21:05;;;;;;;8.60;3.97;;;;;;;;;;5138388;27;20649;-86
2023/08/12 05:23:34;;;;;;;9.93;3.97;;;;;;;;;;5138479;27;20243;-87
2023/08/12 05:26:01;;;;;;;7.90;4.10;;;;;;;;;;5137767;27;20773;-88
2023/08/12 05:28:28;;;;;;;6.65;3.90;;;;;;;;;;5137724;27;20304;-88
2023/08/12 05:30:56;;;;;;;9.45;4.38;;;;;;;;;;5136178;27;20688;-88
2023/08/12 05:33:23;;;;;;;10.65;4.68;;;;;;;;;;5137915;27;20220;-87
2023/08/12 05:35:51;;;;;;;8.07;4.32;;;;;;;;;;5136767;27;20194;-87
2023/08/12 05:38:18;;;;;;;8.88;4.43;;;;;;;;;;5137408;27;20276;-87
2023/08/12 05:40:47;;;;;;;11.35;4.38;;;;;;;;;;5137919;27;20232;-88
2023/08/12 05:43:14;;;;;;;9.30;4.70;;;;;;;;;;5137603;27;20207;-87
2023/08/12 05:45:41;;;;;;;10.77;4.50;;;;;;;;;;5136979;27;20272;-87
2023/08/12 05:48:09;;;;;;;13.70;4.80;;;;;;;;;;5137482;27;20248;-87
2023/08/12 05:50:36;;;;;;;10.15;4.95;;;;;;;;;;5138046;27;20193;-87
2023/08/12 05:53:03;;;;;;;10.27;4.70;;;;;;;;;;5136964;27;20696;-88
2023/08/12 05:55:31;;;;;;;11.07;4.70;;;;;;;;;;5137336;27;20248;-88
2023/08/12 05:57:59;;;;;;;8.85;4.60;;;;;;;;;;5137465;27;20300;-86
2023/08/12 06:00:26;;;;;;;10.50;5.00;;;;;;;;;;5136768;27;20276;-88
2023/08/12 06:02:53;;;;;;;8.60;4.82;;;;;;;;;;5136160;27;20766;-88
2023/08/12 06:05:21;;;;;;;7.78;4.22;;;;;;;;;;5137315;27;20204;-87
2023/08/12 06:07:48;;;;;;;10.85;4.90;;;;;;;;;;5136710;27;20224;-86
2023/08/12 06:10:15;;;;;;;9.63;4.97;;;;;;;;;;5136847;27;20748;-88
2023/08/12 06:12:43;;;;;;;10.07;5.32;;;;;;;;;;5137012;27;20250;-87
2023/08/12 06:15:12;;;;;;;11.43;4.50;;;;;;;;;;5136329;27;20217;-88
2023/08/12 06:17:39;;;;;;;8.32;4.70;;;;;;;;;;5121541;27;20297;-86
2023/08/12 06:20:07;;;;;;;10.13;4.63;;;;;;;;;;5116593;28;20273;-89
2023/08/12 06:22:34;;;;;;;9.18;4.18;;;;;;;;;;5116664;28;20753;-88
2023/08/12 06:25:01;;;;;;;11.75;4.75;;;;;;;;;;5116069;28;20688;-87
2023/08/12 06:27:29;;;;;;;9.13;4.30;;;;;;;;;;5115573;28;20221;-86
2023/08/12 06:29:56;;;;;;;9.15;3.88;;;;;;;;;;5116281;28;20244;-88
2023/08/12 06:32:25;;;;;;;7.25;4.03;;;;;;;;;;5116104;28;20288;-87
2023/08/12 06:34:52;;;;;;;12.43;4.10;;;;;;;;;;5116450;28;20264;-86
2023/08/12 06:37:19;;;;;;;9.18;3.72;;;;;;;;;;5116091;28;21452;-87
2023/08/12 06:39:47;;;;;;;10.00;3.90;;;;;;;;;;5116512;28;20236;-87
2023/08/12 06:42:14;;;;;;;12.05;4.30;;;;;;;;;;5115629;28;20190;-88
2023/08/12 06:44:41;;;;;;;10.05;4.18;;;;;;;;;;5115821;28;20213;-87
2023/08/12 06:47:09;;;;;;;10.02;4.07;;;;;;;;;;5116345;28;20246;-87
2023/08/12 06:49:37;;;;;;;10.05;3.80;;;;;;;;;;5116281;28;20220;-88
2023/08/12 06:52:05;;;;;;;8.88;4.05;;;;;;;;;;5115571;28;20229;-88
2023/08/12 06:54:32;;;;;;;11.27;4.00;;;;;;;;;;5115172;28;20945;-88
2023/08/12 06:56:59;;;;;;;6.63;3.65;;;;;;;;;;5115188;28;20221;-88
2023/08/12 06:59:26;;;;;;;8.13;3.50;;;;;;;;;;5115629;28;20268;-87
2023/08/12 07:01:54;;;;;;;6.88;3.17;;;;;;;;;;5115783;28;20279;-88
2023/08/12 07:04:21;;;;;;;8.68;3.15;;;;;;;;;;5116099;28;20225;-88
2023/08/12 07:06:50;;;;;;;9.32;3.33;;;;;;;;;;5115873;28;20182;-88
2023/08/12 07:09:17;;;;;;;7.53;3.10;;;;;;;;;;5115735;28;20273;-88
2023/08/12 07:11:45;;;;;;;9.60;3.50;;;;;;;;;;5115311;28;20205;-88
2023/08/12 07:14:12;;;;;;;6.38;2.50;;;;;;;;;;5115538;28;20309;-88
2023/08/12 07:16:39;;;;;;;7.15;2.50;;;;;;;;;;5121671;27;20287;-90
2023/08/12 07:19:06;;;;;;;6.10;2.80;;;;;;;;;;5136364;27;20201;-90
2023/08/12 07:21:34;;;;;;;7.25;3.10;;;;;;;;;;5136190;27;20280;-89
2023/08/12 07:24:02;;;;;;;6.85;2.90;;;;;;;;;;5135096;27;20288;-88
2023/08/12 07:26:30;;;;;;;5.55;2.58;;;;;;;;;;5135854;27;20236;-90
2023/08/12 07:28:58;;;;;;;7.65;2.90;;;;;;;;;;5136091;27;20185;-88
2023/08/12 07:31:25;;;;;;;8.82;3.38;;;;;;;;;;5135646;27;20233;-90
2023/08/12 07:33:53;;;;;;;7.05;2.78;;;;;;;;;;5136293;27;20216;-90
2023/08/12 07:36:20;;;;;;;7.25;2.45;;;;;;;;;;5136546;27;20205;-89
2023/08/12 07:38:47;;;;;;;6.65;2.60;;;;;;;;;;5135488;27;20217;-90
2023/08/12 07:41:16;;;;;;;6.60;3.13;;;;;;;;;;5135452;27;20651;-90
2023/08/12 07:43:43;;;;;;;9.90;3.00;;;;;;;;;;5135883;27;20242;-89
2023/08/12 07:46:10;;;;;;;8.13;2.83;;;;;;;;;;5136038;27;20232;-89
2023/08/12 07:48:38;;;;;;;7.85;3.00;;;;;;;;;;5135591;27;20371;-89
2023/08/12 07:51:05;;;;;;;6.88;2.92;;;;;;;;;;5135611;27;20272;-90
2023/08/12 07:53:32;;;;;;;6.00;2.70;;;;;;;;;;5135618;27;20225;-90
2023/08/12 07:55:59;;;;;;;6.65;3.03;;;;;;;;;;5135433;27;20591;-90
2023/08/12 07:58:28;;;;;;;6.13;2.42;;;;;;;;;;5135712;27;20744;-90
2023/08/12 08:00:55;;;;;;;7.45;2.63;;;;;;;;;;5135803;27;20240;-90
2023/08/12 08:03:22;;;;;;;7.55;2.50;;;;;;;;;;5135346;27;20316;-90
2023/08/12 08:05:49;;;;;;;10.43;2.63;;;;;;;;;;5135272;27;20642;-90
2023/08/12 08:08:17;;;;;;;5.68;2.45;;;;;;;;;;5135161;27;20246;-90
2023/08/12 08:10:44;;;;;;;8.07;2.83;;;;;;;;;;5135532;27;20220;-91
2023/08/12 08:13:11;;;;;;;6.07;2.40;;;;;;;;;;5135414;27;20225;-90
2023/08/12 08:15:40;;;;;;;6.63;2.88;;;;;;;;;;5134806;27;20264;-90
2023/08/12 08:18:07;;;;;;;9.07;2.80;;;;;;;;;;5116374;27;20258;-90
2023/08/12 08:20:35;;;;;;;8.80;2.65;;;;;;;;;;5114602;28;20273;-91
2023/08/12 08:23:02;;;;;;;5.60;2.40;;;;;;;;;;5114491;28;20204;-90
2023/08/12 08:25:29;;;;;;;9.48;2.60;;;;;;;;;;5114138;28;20745;-90
2023/08/12 08:27:56;;;;;;;6.85;2.80;;;;;;;;;;5114479;28;20216;-91
2023/08/12 08:30:25;;;;;;;7.25;3.00;;;;;;;;;;5114413;28;20202;-90
2023/08/12 08:32:54;;;;;;;7.68;2.33;;;;;;;;;;5114570;28;20208;-91
2023/08/12 08:35:21;;;;;;;8.43;2.70;;;;;;;;;;5113530;28;20228;-91
2023/08/12 08:37:48;;;;;;;10.23;2.90;;;;;;;;;;5114517;28;20213;-89
2023/08/12 08:40:16;;;;;;;8.32;2.95;;;;;;;;;;5114395;28;20617;-90
2023/08/12 08:42:44;;;;;;;6.00;2.30;;;;;;;;;;5114250;28;20285;-90
2023/08/12 08:45:14;;;;;;;7.07;2.50;;;;;;;;;;5114090;28;20206;-91
2023/08/12 08:47:42;;;;;;;6.28;2.00;;;;;;;;;;5113888;28;20285;-89
2023/08/12 08:50:12;;;;;;;8.68;2.70;;;;;;;;;;5114220;28;20220;-92
2023/08/12 08:52:39;;;;;;;9.52;2.70;;;;;;;;;;5113853;28;20232;-91
2023/08/12 08:55:07;;;;;;;7.90;2.42;;;;;;;;;;5114385;28;20312;-92
2023/08/12 08:57:34;;;;;;;7.88;2.60;;;;;;;;;;5113945;28;20277;-91
2023/08/12 09:00:02;;;;;;;6.95;2.40;;;;;;;;;;5113972;28;20209;-91
2023/08/12 09:02:29;;;;;;;9.27;2.53;;;;;;;;;;5114228;28;20233;-91
2023/08/12 09:04:56;;;;;;;8.80;2.70;;;;;;;;;;5114077;28;20201;-91
2023/08/12 09:07:25;;;;;;;6.35;2.53;;;;;;;;;;5113849;28;20221;-92
2023/08/12 09:09:54;;;;;;;9.25;2.53;;;;;;;;;;5114046;28;20229;-92
2023/08/12 09:12:21;;;;;;;8.18;2.40;;;;;;;;;;5113697;28;20258;-92
2023/08/12 09:14:48;;;;;;;7.18;2.20;;;;;;;;;;5113422;28;20308;-91
2023/08/12 09:17:16;;;;;;;7.50;2.30;;;;;;;;;;5125356;28;20232;-92
2023/08/12 09:19:44;;;;;;;7.28;2.50;;;;;;;;;;5134379;27;20201;-92
2023/08/12 09:22:11;;;;;;;7.88;2.95;;;;;;;;;;5133953;27;20272;-92
2023/08/12 09:24:39;;;;;;;6.40;2.35;;;;;;;;;;5134627;27;20666;-91
2023/08/12 09:27:07;;;;;;;5.57;2.20;;;;;;;;;;5134206;27;20242;-92
2023/08/12 09:29:35;;;;;;;7.25;2.60;;;;;;;;;;5134553;27;20185;-93
2023/08/12 09:32:11;;;;;;;6.40;2.28;;;;;;;;;;5134249;27;20801;-92
2023/08/12 09:34:38;;;;;;;10.07;2.65;;;;;;;;;;5134145;27;20249;-93
2023/08/12 09:37:06;;;;;;;7.95;2.60;;;;;;;;;;5135791;27;20225;-92
2023/08/12 09:39:33;;;;;;;6.13;1.90;;;;;;;;;;5138416;27;20231;-92
2023/08/12 09:42:02;;;;;;;8.13;2.45;;;;;;;;;;5138301;27;20622;-93
2023/08/12 09:44:30;;;;;;;6.85;2.50;;;;;;;;;;5138126;27;20186;-92
2023/08/12 09:47:00;;;;;;;6.07;2.60;;;;;;;;;;5137719;27;20200;-92
2023/08/12 09:49:27;;;;;;;9.20;2.60;;;;;;;;;;5138736;27;20275;-92
2023/08/12 09:51:55;;;;;;;6.63;2.30;;;;;;;;;;5138008;27;20228;-93
2023/08/12 09:54:24;;;;;;;7.40;2.55;;;;;;;;;;5138325;27;20606;-93
2023/08/12 09:56:54;;;;;;;8.73;2.50;;;;;;;;;;5138058;27;20232;-94
2023/08/12 09:59:23;;;;;;;8.18;2.28;;;;;;;;;;5137918;27;20234;-93
2023/08/12 10:01:51;;;;;;;7.90;2.13;;;;;;;;;;5137496;27;20312;-93
2023/08/12 10:04:20;;;;;;;7.68;2.40;;;;;;;;;;5138129;27;20192;-93
2023/08/12 10:06:48;;;;;;;8.05;2.63;;;;;;;;;;5137494;27;20235;-93
2023/08/12 10:09:18;;;;;;;7.03;2.28;;;;;;;;;;5137840;27;20300;-93
2023/08/12 10:11:45;;;;;;;4.68;2.13;;;;;;;;;;5137856;27;20193;-94
2023/08/12 10:14:14;;;;;;;10.60;2.67;;;;;;;;;;5138241;27;20243;-94
2023/08/12 10:16:43;;;;;;;8.02;2.60;;;;;;;;;;5137126;27;20270;-93
2023/08/12 10:19:12;;;;;;;5.57;2.40;;;;;;;;;;5137786;27;20225;-92
2023/08/12 10:21:40;;;;;;;4.50;2.10;;;;;;;;;;5138732;27;20280;-94
2023/08/12 10:24:08;;;;;;;5.60;2.30;;;;;;;;;;5138573;27;20189;-94
2023/08/12 10:26:35;;;;;;;5.50;2.28;;;;;;;;;;5138083;27;20224;-95
2023/08/12 10:29:02;;;;;;;6.22;2.17;;;;;;;;;;5138462;27;20256;-93
2023/08/12 10:31:30;;;;;;;6.40;2.45;;;;;;;;;;5137951;27;20197;-94
2023/08/12 10:33:59;;;;;;;7.03;2.28;;;;;;;;;;5138492;27;20193;-93
2023/08/12 10:36:27;;;;;;;5.85;2.22;;;;;;;;;;5137995;27;20316;-93
2023/08/12 10:38:55;;;;;;;9.25;2.50;;;;;;;;;;5138574;27;20264;-93
2023/08/12 10:41:23;;;;;;;7.25;2.50;;;;;;;;;;5138107;27;20279;-92
2023/08/12 10:43:50;;;;;;;6.75;2.30;;;;;;;;;;5138223;27;20193;-94
2023/08/12 10:46:23;;;;;;;6.00;1.92;;;;;;;;;;5137708;27;20280;-93
2023/08/12 10:48:58;;;;;;;4.97;2.20;;;;;;;;;;5136405;27;20288;-93
2023/08/12 10:54:33;;;;;;;6.80;2.20;;;;;;;;;;5113485;27;20607;-93
2023/08/12 10:57:13;;;;;;;6.82;2.33;;;;;;;;;;5110187;28;20697;-95
2023/08/12 10:59:58;;;;;;;5.70;2.15;;;;;;;;;;5112732;28;20228;-93
2023/08/12 11:02:29;;;;;;;7.20;2.33;;;;;;;;;;5112774;28;20248;-93
2023/08/12 11:04:57;;;;;;;7.53;2.30;;;;;;;;;;5112657;28;20254;-93
2023/08/12 11:07:30;;;;;;;6.03;2.00;;;;;;;;;;5112789;28;20198;-94
2023/08/12 11:10:01;;;;;;;6.45;2.20;;;;;;;;;;5112553;28;20225;-94
2023/08/12 11:12:32;;;;;;;6.78;2.55;;;;;;;;;;5112841;28;20232;-95
2023/08/12 11:15:01;;;;;;;5.95;1.83;;;;;;;;;;5112674;28;20218;-93
2023/08/12 11:17:31;;;;;;;6.18;2.10;;;;;;;;;;5111582;27;20210;-93
2023/08/12 11:19:59;;;;;;;7.43;2.22;;;;;;;;;;5111169;28;20619;-94
2023/08/12 11:22:26;;;;;;;6.95;2.10;;;;;;;;;;5110665;28;20263;-94
2023/08/12 11:24:54;;;;;;;5.93;2.25;;;;;;;;;;5111107;28;20265;-94
2023/08/12 11:27:23;;;;;;;5.35;2.10;;;;;;;;;;5110907;28;20232;-93
2023/08/12 11:29:51;;;;;;;6.30;2.20;;;;;;;;;;5111014;28;20666;-94
2023/08/12 11:32:19;;;;;;;5.93;2.00;;;;;;;;;;5110790;28;20202;-94
2023/08/12 11:34:46;;;;;;;5.43;2.08;;;;;;;;;;5111625;28;20225;-94
2023/08/12 11:37:13;;;;;;;5.53;2.10;;;;;;;;;;5111280;28;20217;-93
2023/08/12 11:39:41;;;;;;;7.30;1.95;;;;;;;;;;5110657;28;20229;-93
2023/08/12 11:42:08;;;;;;;6.57;2.10;;;;;;;;;;5110888;28;20262;-93
2023/08/12 11:44:36;;;;;;;6.70;2.33;;;;;;;;;;5110644;28;20277;-93
2023/08/12 11:47:03;;;;;;;7.22;2.45;;;;;;;;;;5110448;28;20286;-93
2023/08/12 11:49:31;;;;;;;4.93;2.30;;;;;;;;;;5110774;28;20221;-94
2023/08/12 11:51:58;;;;;;;6.85;2.28;;;;;;;;;;5110343;28;20277;-93
2023/08/12 11:54:26;;;;;;;8.60;2.17;;;;;;;;;;5110492;28;20261;-93
2023/08/12 11:56:53;;;;;;;5.95;2.08;;;;;;;;;;5110867;28;20574;-94
2023/08/12 11:59:22;;;;;;;4.75;2.15;;;;;;;;;;5110567;28;20257;-93
2023/08/12 12:01:51;;;;;;;7.07;2.20;;;;;;;;;;5110106;28;20190;-93
2023/08/12 12:04:20;;;;;;;8.05;2.65;;;;;;;;;;5104421;28;20234;-93
2023/08/12 12:06:48;;;;;;;5.43;2.40;;;;;;;;;;5096723;28;20285;-94
2023/08/12 12:09:18;;;;;;;7.55;2.00;;;;;;;;;;5096652;28;20190;-93
2023/08/12 12:11:45;;;;;;;7.65;2.10;;;;;;;;;;5096875;28;20202;-93
2023/08/12 12:14:12;;;;;;;7.70;2.50;;;;;;;;;;5096500;28;20253;-94
2023/08/12 12:16:41;;;;;;;7.05;2.45;;;;;;;;;;5096299;28;20202;-94
2023/08/12 12:19:14;;;;;;;6.43;2.15;;;;;;;;;;5096520;28;20282;-93
2023/08/12 12:21:42;;;;;;;7.78;2.17;;;;;;;;;;5096373;28;20283;-93
2023/08/12 12:24:09;;;;;;;7.32;2.28;;;;;;;;;;5096910;28;20221;-93
2023/08/12 12:26:37;;;;;;;5.15;1.90;;;;;;;;;;5095725;28;20238;-94
2023/08/12 12:29:05;;;;;;;7.25;2.22;;;;;;;;;;5096416;28;20282;-93
2023/08/12 12:31:33;;;;;;;8.27;2.38;;;;;;;;;;5095642;28;20681;-94
2023/08/12 12:34:00;;;;;;;5.90;1.95;;;;;;;;;;5096065;28;20210;-94
2023/08/12 12:36:29;;;;;;;5.68;1.90;;;;;;;;;;5095097;28;20593;-92
2023/08/12 12:38:56;;;;;;;5.68;2.28;;;;;;;;;;5096260;28;20218;-94
2023/08/12 12:41:24;;;;;;;6.35;2.00;;;;;;;;;;5096071;28;20273;-92
2023/08/12 12:43:51;;;;;;;5.35;2.53;;;;;;;;;;5096137;28;20290;-94
2023/08/12 12:46:18;;;;;;;6.43;2.00;;;;;;;;;;5095435;28;20186;-94
2023/08/12 12:48:46;;;;;;;7.45;2.13;;;;;;;;;;5096129;28;20221;-93
2023/08/12 12:51:13;;;;;;;6.95;2.25;;;;;;;;;;5095857;28;20232;-92
2023/08/12 12:53:42;;;;;;;5.97;2.03;;;;;;;;;;5095471;28;20691;-93
2023/08/12 12:56:09;;;;;;;8.38;2.30;;;;;;;;;;5096039;28;20199;-94
2023/08/12 12:58:37;;;;;;;8.05;2.30;;;;;;;;;;5095586;28;20218;-93
2023/08/12 13:01:05;;;;;;;6.95;2.30;;;;;;;;;;5095565;28;20624;-92
2023/08/12 13:03:32;;;;;;;5.80;1.90;;;;;;;;;;5095544;28;20216;-91
2023/08/12 13:06:00;;;;;;;5.47;1.65;;;;;;;;;;5095684;28;20269;-93
2023/08/12 13:08:28;;;;;;;5.72;2.00;;;;;;;;;;5095444;28;20225;-94
2023/08/12 13:10:56;;;;;;;6.38;2.00;;;;;;;;;;5095952;28;20290;-93
2023/08/12 13:13:24;;;;;;;5.70;2.28;;;;;;;;;;5095508;28;20682;-93
2023/08/12 13:15:51;;;;;;;5.97;1.90;;;;;;;;;;5094258;28;20221;-93
2023/08/12 13:18:18;;;;;;;7.55;2.13;;;;;;;;;;5075228;28;20289;-92
2023/08/12 13:20:45;;;;;;;6.22;1.98;;;;;;;;;;5074912;28;20290;-93
2023/08/12 13:23:13;;;;;;;7.32;2.03;;;;;;;;;;5074911;28;20645;-92
2023/08/12 13:25:40;;;;;;;8.25;2.45;;;;;;;;;;5075085;28;20198;-92
2023/08/12 13:28:09;;;;;;;10.48;2.30;;;;;;;;;;5075023;28;20191;-85
2023/08/12 13:30:36;;;;;;;6.65;2.17;;;;;;;;;;5073720;28;20944;-91
2023/08/12 13:33:04;;;;;;;11.93;2.25;;;;;;;;;;5074791;28;20302;-92
2023/08/12 13:35:31;;;;;;;7.55;1.95;;;;;;;;;;5074735;28;20191;-92
2023/08/12 13:37:59;;;;;;;7.10;2.10;;;;;;;;;;5075062;28;20194;-91
2023/08/12 13:40:26;;;;;;;6.53;2.13;;;;;;;;;;5074719;28;20226;-93
2023/08/12 13:42:53;;;;;;;6.68;2.22;;;;;;;;;;5074682;28;20210;-92
2023/08/12 13:45:23;;;;;;;10.65;2.08;;;;;;;;;;5074813;28;20219;-92
2023/08/12 13:47:50;;;;;;;7.97;2.05;;;;;;;;;;5074979;28;20183;-90
2023/08/12 13:50:18;;;;;;;6.43;2.30;;;;;;;;;;5074691;28;20238;-92
2023/08/12 13:52:49;;;;;;;7.05;2.15;;;;;;;;;;5074353;28;20231;-93
2023/08/12 13:55:16;;;;;;;8.65;2.30;;;;;;;;;;5074349;28;20209;-92
2023/08/12 13:57:43;;;;;;;5.90;2.05;;;;;;;;;;5074250;28;20191;-92
2023/08/12 14:00:13;;;;;;;8.18;2.20;;;;;;;;;;5074846;28;20729;-93
2023/08/12 14:02:42;;;;;;;7.97;2.00;;;;;;;;;;5074578;28;20610;-93
2023/08/12 14:05:10;;;;;;;7.95;1.98;;;;;;;;;;5074267;28;20594;-92
2023/08/12 14:07:37;;;;;;;8.32;2.40;;;;;;;;;;5074172;28;20188;-90
2023/08/12 14:10:06;;;;;;;6.90;1.90;;;;;;;;;;5074241;28;21408;-92
2023/08/12 14:12:33;;;;;;;8.25;2.30;;;;;;;;;;5073585;28;20282;-91
2023/08/12 14:15:01;;;;;;;8.25;2.50;;;;;;;;;;5073973;28;20227;-91
2023/08/12 14:17:28;;;;;;;7.32;1.98;;;;;;;;;;5074321;28;20696;-92
2023/08/12 14:19:58;;;;;;;7.10;2.20;;;;;;;;;;5074168;28;20263;-92
2023/08/12 14:22:25;;;;;;;7.80;2.10;;;;;;;;;;5074141;28;20278;-92
2023/08/12 14:24:52;;;;;;;15.13;2.10;;;;;;;;;;5074324;28;20649;-92
2023/08/12 14:27:20;;;;;;;7.45;2.20;;;;;;;;;;5073636;28;20265;-92
2023/08/12 14:29:47;;;;;;;7.18;2.35;;;;;;;;;;5074161;28;20202;-91
2023/08/12 14:32:16;;;;;;;7.03;2.00;;;;;;;;;;5073633;28;20183;-93
2023/08/12 14:34:46;;;;;;;8.57;1.98;;;;;;;;;;5073449;28;20313;-92
2023/08/12 14:37:14;;;;;;;7.25;2.17;;;;;;;;;;5073778;28;20195;-91
2023/08/12 14:39:42;;;;;;;8.40;2.17;;;;;;;;;;5074006;28;20259;-92
2023/08/12 14:42:10;;;;;;;6.68;2.20;;;;;;;;;;5073628;28;20278;-91
2023/08/12 14:44:37;;;;;;;7.93;2.38;;;;;;;;;;5073489;28;20278;-92
2023/08/12 14:47:04;;;;;;;6.53;2.08;;;;;;;;;;5073443;28;20191;-90